createdAt,value
2023-05-19T00:01:02.254Z,3.03
2023-05-19T00:02:24.651Z,2.74
2023-05-19T00:03:53.326Z,2.83
2023-05-19T00:06:31.362Z,1.99
2023-05-19T00:07:53.718Z,2.58
2023-05-19T00:09:16.005Z,2.70
2023-05-19T00:10:38.357Z,2.47
2023-05-19T00:12:00.362Z,2.62
2023-05-19T00:13:22.530Z,2.52
2023-05-19T00:14:45.409Z,2.35
2023-05-19T00:16:08.312Z,2.32
2023-05-19T00:17:29.610Z,2.32
2023-05-19T00:18:51.290Z,2.31
2023-05-19T00:20:15.326Z,2.38
2023-05-19T00:21:37.458Z,2.44
2023-05-19T00:22:59.554Z,1.87
2023-05-19T00:24:21.673Z,2.41
2023-05-19T00:25:43.185Z,1.97
2023-05-19T00:27:05.232Z,2.55
2023-05-19T00:28:27.711Z,2.64
2023-05-19T00:29:49.239Z,2.57
2023-05-19T00:31:10.672Z,2.33
2023-05-19T00:32:32.343Z,2.63
2023-05-19T00:33:54.340Z,2.34
2023-05-19T00:35:16.881Z,2.74
2023-05-19T00:36:38.864Z,2.50
2023-05-19T00:38:00.478Z,2.68
2023-05-19T00:39:21.767Z,2.48
2023-05-19T00:40:43.759Z,2.43
2023-05-19T00:42:05.910Z,2.52
2023-05-19T00:43:27.954Z,2.34
2023-05-19T00:44:50.362Z,2.64
2023-05-19T00:46:13.331Z,2.41
2023-05-19T00:47:35.168Z,2.93
2023-05-19T00:48:57.211Z,3.86
2023-05-19T00:50:19.460Z,3.55
2023-05-19T00:51:41.151Z,4.07
2023-05-19T00:53:02.532Z,3.59
2023-05-19T00:54:24.458Z,3.15
2023-05-19T00:55:45.919Z,2.64
2023-05-19T00:57:07.714Z,2.73
2023-05-19T00:58:29.336Z,2.37
2023-05-19T00:59:51.630Z,2.39
2023-05-19T01:01:13.659Z,2.49
2023-05-19T01:02:36.799Z,2.46
2023-05-19T01:05:19.582Z,2.03
2023-05-19T01:06:41.624Z,2.23
2023-05-19T01:08:02.791Z,2.19
2023-05-19T01:09:24.487Z,2.01
2023-05-19T01:10:46.653Z,2.27
2023-05-19T01:12:08.613Z,2.43
2023-05-19T01:13:30.357Z,1.93
2023-05-19T01:14:52.228Z,2.11
2023-05-19T01:16:21.674Z,2.23
2023-05-19T01:17:55.512Z,1.94
2023-05-19T01:19:21.384Z,2.03
2023-05-19T01:20:45.133Z,2.37
2023-05-19T01:22:31.856Z,2.03
2023-05-19T01:25:26.634Z,1.89
2023-05-19T01:27:09.102Z,2.12
2023-05-19T01:28:45.832Z,2.01
2023-05-19T01:31:28.614Z,1.99
2023-05-19T01:32:50.781Z,2.06
2023-05-19T01:34:12.657Z,2.43
2023-05-19T01:35:35.316Z,2.18
2023-05-19T01:36:56.929Z,2.16
2023-05-19T01:38:19.228Z,1.92
2023-05-19T01:39:44.069Z,2.29
2023-05-19T01:41:05.915Z,1.99
2023-05-19T01:42:27.650Z,1.88
2023-05-19T01:43:49.720Z,1.93
2023-05-19T01:45:12.225Z,2.09
2023-05-19T01:46:33.567Z,2.24
2023-05-19T01:47:57.648Z,1.97
2023-05-19T01:49:20.052Z,1.97
2023-05-19T01:50:41.317Z,1.93
2023-05-19T01:52:03.138Z,2.03
2023-05-19T01:53:26.442Z,2.04
2023-05-19T01:54:47.782Z,1.94
2023-05-19T01:56:09.545Z,1.86
2023-05-19T01:57:38.265Z,1.92
2023-05-19T01:59:02.570Z,2.01
2023-05-19T02:00:43.982Z,2.12
2023-05-19T02:02:09.185Z,2.23
2023-05-19T02:04:09.143Z,2.18
2023-05-19T02:06:04.418Z,1.91
2023-05-19T02:07:48.218Z,1.95
2023-05-19T02:09:33.470Z,2.25
2023-05-19T02:11:05.280Z,2.24
2023-05-19T02:12:32.583Z,2.16
2023-05-19T02:13:56.319Z,2.05
2023-05-19T02:15:20.816Z,2.26
2023-05-19T02:17:58.232Z,2.01
2023-05-19T02:19:24.433Z,2.13
2023-05-19T02:20:47.942Z,2.31
2023-05-19T02:22:10.261Z,2.37
2023-05-19T02:23:32.257Z,2.34
2023-05-19T02:24:53.866Z,2.18
2023-05-19T02:26:15.384Z,2.08
2023-05-19T02:27:38.521Z,1.71
2023-05-19T02:29:00.029Z,2.22
2023-05-19T02:30:21.467Z,2.33
2023-05-19T02:31:43.629Z,2.25
2023-05-19T02:33:07.200Z,1.98
2023-05-19T02:34:29.877Z,2.16
2023-05-19T02:35:51.801Z,1.56
2023-05-19T02:37:16.975Z,1.42
2023-05-19T02:38:38.236Z,1.87
2023-05-19T02:40:00.260Z,1.97
2023-05-19T02:41:22.743Z,2.27
2023-05-19T02:42:44.312Z,1.97
2023-05-19T02:44:06.314Z,2.11
2023-05-19T02:45:28.426Z,1.64
2023-05-19T02:46:50.704Z,2.13
2023-05-19T02:48:13.209Z,2.03
2023-05-19T02:49:34.337Z,2.01
2023-05-19T02:50:56.280Z,2.38
2023-05-19T02:52:18.486Z,1.96
2023-05-19T02:53:40.106Z,2.31
2023-05-19T02:55:01.951Z,2.12
2023-05-19T02:56:24.029Z,2.14
2023-05-19T02:57:45.536Z,1.99
2023-05-19T02:59:08.087Z,2.23
2023-05-19T03:00:30.817Z,2.30
2023-05-19T03:01:58.820Z,1.92
2023-05-19T03:03:22.452Z,2.18
2023-05-19T03:04:44.244Z,2.35
2023-05-19T03:06:05.736Z,2.50
2023-05-19T03:07:27.284Z,2.04
2023-05-19T03:08:49.430Z,2.25
2023-05-19T03:10:15.046Z,2.09
2023-05-19T03:11:36.570Z,1.97
2023-05-19T03:12:58.661Z,2.12
2023-05-19T03:14:20.200Z,2.35
2023-05-19T03:15:41.365Z,2.05
2023-05-19T03:17:04.392Z,2.32
2023-05-19T03:18:26.833Z,2.06
2023-05-19T03:19:48.700Z,2.38
2023-05-19T03:21:11.172Z,2.11
2023-05-19T03:22:33.530Z,1.85
2023-05-19T03:23:55.645Z,2.27
2023-05-19T03:25:20.244Z,2.25
2023-05-19T03:26:42.629Z,2.43
2023-05-19T03:28:04.568Z,1.42
2023-05-19T03:29:25.963Z,2.22
2023-05-19T03:30:47.774Z,2.17
2023-05-19T03:32:09.633Z,1.94
2023-05-19T03:33:31.577Z,2.16
2023-05-19T03:34:53.227Z,2.36
2023-05-19T03:36:15.561Z,2.57
2023-05-19T03:37:37.891Z,1.96
2023-05-19T03:38:59.463Z,2.22
2023-05-19T03:40:21.689Z,2.26
2023-05-19T03:41:43.880Z,2.60
2023-05-19T03:43:05.789Z,2.35
2023-05-19T03:44:28.195Z,2.61
2023-05-19T03:45:49.688Z,1.66
2023-05-19T03:47:11.758Z,1.61
2023-05-19T03:48:33.623Z,2.01
2023-05-19T03:49:55.619Z,2.16
2023-05-19T03:51:17.912Z,1.65
2023-05-19T03:52:40.302Z,2.12
2023-05-19T03:54:02.401Z,2.02
2023-05-19T03:55:24.871Z,2.51
2023-05-19T03:56:46.925Z,1.97
2023-05-19T03:58:08.970Z,1.82
2023-05-19T03:59:30.835Z,1.46
2023-05-19T04:00:52.391Z,2.17
2023-05-19T04:02:14.427Z,1.91
2023-05-19T04:03:37.496Z,2.24
2023-05-19T04:04:59.861Z,2.62
2023-05-19T04:06:21.480Z,1.85
2023-05-19T04:07:43.648Z,1.88
2023-05-19T04:09:13.926Z,2.17
2023-05-19T04:10:36.074Z,2.17
2023-05-19T04:11:57.310Z,2.27
2023-05-19T04:13:19.739Z,2.15
2023-05-19T04:14:41.494Z,1.92
2023-05-19T04:16:03.160Z,1.88
2023-05-19T04:17:25.099Z,1.90
2023-05-19T04:18:47.754Z,2.12
2023-05-19T04:21:31.819Z,1.79
2023-05-19T04:22:54.227Z,2.00
2023-05-19T04:24:15.986Z,1.90
2023-05-19T04:25:38.036Z,1.87
2023-05-19T04:26:59.372Z,2.02
2023-05-19T04:28:22.078Z,2.00
2023-05-19T04:29:43.635Z,2.04
2023-05-19T04:31:05.190Z,2.04
2023-05-19T04:32:27.172Z,1.78
2023-05-19T04:33:48.875Z,1.82
2023-05-19T04:35:12.617Z,2.17
2023-05-19T04:36:34.821Z,2.21
2023-05-19T04:39:13.525Z,2.08
2023-05-19T04:40:35.238Z,1.91
2023-05-19T04:41:57.657Z,1.84
2023-05-19T04:43:20.136Z,2.02
2023-05-19T04:44:41.803Z,2.16
2023-05-19T04:46:03.415Z,1.78
2023-05-19T04:47:25.398Z,2.74
2023-05-19T04:48:47.756Z,2.68
2023-05-19T04:50:11.978Z,1.99
2023-05-19T04:51:34.102Z,1.73
2023-05-19T04:52:56.392Z,2.12
2023-05-19T04:54:18.406Z,1.87
2023-05-19T04:55:40.563Z,2.18
2023-05-19T04:58:25.242Z,1.77
2023-05-19T04:59:46.663Z,2.06
2023-05-19T05:01:08.691Z,2.14
2023-05-19T05:02:30.940Z,2.44
2023-05-19T05:03:53.278Z,2.27
2023-05-19T05:05:14.835Z,2.11
2023-05-19T05:06:36.594Z,2.31
2023-05-19T05:07:57.935Z,1.98
2023-05-19T05:09:20.424Z,2.11
2023-05-19T05:10:42.308Z,2.56
2023-05-19T05:12:05.735Z,1.51
2023-05-19T05:13:27.380Z,2.03
2023-05-19T05:14:50.166Z,2.19
2023-05-19T05:17:24.631Z,2.07
2023-05-19T05:18:47.313Z,2.21
2023-05-19T05:21:23.148Z,1.86
2023-05-19T05:22:45.439Z,1.67
2023-05-19T05:24:08.790Z,1.66
2023-05-19T05:25:32.131Z,2.07
2023-05-19T05:26:55.482Z,1.96
2023-05-19T05:28:18.759Z,2.11
2023-05-19T05:29:40.918Z,2.10
2023-05-19T05:31:03.373Z,1.94
2023-05-19T05:32:25.303Z,1.79
2023-05-19T05:33:48.779Z,1.83
2023-05-19T05:35:11.453Z,2.13
2023-05-19T05:36:33.339Z,1.88
2023-05-19T05:37:55.301Z,2.31
2023-05-19T05:39:18.739Z,2.26
2023-05-19T05:40:40.462Z,2.29
2023-05-19T05:42:02.792Z,2.28
2023-05-19T05:43:24.054Z,2.18
2023-05-19T05:44:46.089Z,2.40
2023-05-19T05:46:08.450Z,3.69
2023-05-19T05:47:32.416Z,3.14
2023-05-19T05:48:54.450Z,2.89
2023-05-19T05:50:17.666Z,2.72
2023-05-19T05:51:40.667Z,2.32
2023-05-19T05:53:02.769Z,2.52
2023-05-19T05:54:25.072Z,2.89
2023-05-19T05:55:47.576Z,2.33
2023-05-19T05:57:10.394Z,2.20
2023-05-19T05:59:54.015Z,2.63
2023-05-19T06:01:15.846Z,2.58
2023-05-19T06:02:38.097Z,2.46
2023-05-19T06:04:00.168Z,2.53
2023-05-19T06:05:22.203Z,2.53
2023-05-19T06:06:43.669Z,2.61
2023-05-19T06:08:05.976Z,2.89
2023-05-19T06:09:28.144Z,3.47
2023-05-19T06:10:50.058Z,2.78
2023-05-19T06:12:11.952Z,2.86
2023-05-19T06:14:45.772Z,3.87
2023-05-19T06:16:07.772Z,2.63
2023-05-19T06:17:30.065Z,3.57
2023-05-19T06:18:53.275Z,3.54
2023-05-19T06:20:17.108Z,3.90
2023-05-19T06:21:39.481Z,3.05
2023-05-19T06:23:00.678Z,2.43
2023-05-19T06:24:23.270Z,3.21
2023-05-19T06:25:45.097Z,3.32
2023-05-19T06:27:07.208Z,2.97
2023-05-19T06:28:28.316Z,2.82
2023-05-19T06:29:50.255Z,2.78
2023-05-19T06:31:11.900Z,3.22
2023-05-19T06:32:33.838Z,2.56
2023-05-19T06:33:55.985Z,2.80
2023-05-19T06:35:18.076Z,2.65
2023-05-19T06:36:39.469Z,2.24
2023-05-19T06:38:02.606Z,3.10
2023-05-19T06:39:31.797Z,2.75
2023-05-19T06:40:53.631Z,3.04
2023-05-19T06:42:15.466Z,2.49
2023-05-19T06:43:37.375Z,2.63
2023-05-19T06:45:00.063Z,2.85
2023-05-19T06:47:32.466Z,4.93
2023-05-19T06:48:54.784Z,3.31
2023-05-19T06:50:18.349Z,4.08
2023-05-19T06:51:40.480Z,5.63
2023-05-19T06:53:03.668Z,3.46
2023-05-19T06:54:25.477Z,3.88
2023-05-19T06:55:58.179Z,2.86
2023-05-19T06:57:11.898Z,4.06
2023-05-19T06:58:33.535Z,4.18
2023-05-19T06:59:57.030Z,3.67
2023-05-19T07:01:19.112Z,3.99
2023-05-19T07:02:41.557Z,2.53
2023-05-19T07:04:03.833Z,3.11
2023-05-19T07:05:25.569Z,3.62
2023-05-19T07:06:47.425Z,3.72
2023-05-19T07:08:09.113Z,3.62
2023-05-19T07:09:30.840Z,2.86
2023-05-19T07:10:52.886Z,2.76
2023-05-19T07:12:14.986Z,3.43
2023-05-19T07:13:37.002Z,3.52
2023-05-19T07:14:58.188Z,3.14
2023-05-19T07:16:21.352Z,3.17
2023-05-19T07:17:43.890Z,3.44
2023-05-19T07:19:05.727Z,2.89
2023-05-19T07:20:27.781Z,3.24
2023-05-19T07:21:49.496Z,3.09
2023-05-19T07:23:12.140Z,3.60
2023-05-19T07:24:34.274Z,3.39
2023-05-19T07:25:55.674Z,3.09
2023-05-19T07:27:17.499Z,3.22
2023-05-19T07:28:41.609Z,2.85
2023-05-19T07:30:04.047Z,3.58
2023-05-19T07:31:26.177Z,4.13
2023-05-19T07:32:48.546Z,3.26
2023-05-19T07:34:10.026Z,3.46
2023-05-19T07:35:32.618Z,3.32
2023-05-19T07:36:54.401Z,3.27
2023-05-19T07:38:16.537Z,3.66
2023-05-19T07:39:38.319Z,3.09
2023-05-19T07:41:01.552Z,3.20
2023-05-19T07:42:23.289Z,3.49
2023-05-19T07:43:45.418Z,3.97
2023-05-19T07:45:08.645Z,3.38
2023-05-19T07:46:31.172Z,3.54
2023-05-19T07:47:55.379Z,3.84
2023-05-19T07:49:16.952Z,3.87
2023-05-19T07:50:39.927Z,4.09
2023-05-19T07:52:01.527Z,4.86
2023-05-19T07:53:24.043Z,4.93
2023-05-19T07:54:47.190Z,3.69
2023-05-19T07:56:09.795Z,3.86
2023-05-19T07:57:31.888Z,4.35
2023-05-19T07:58:53.437Z,4.61
2023-05-19T08:00:17.628Z,3.21
2023-05-19T08:01:39.232Z,3.72
2023-05-19T08:03:02.012Z,3.44
2023-05-19T08:04:25.678Z,5.19
2023-05-19T08:05:47.490Z,3.84
2023-05-19T08:07:12.511Z,3.97
2023-05-19T08:08:34.191Z,3.72
2023-05-19T08:09:55.983Z,3.57
2023-05-19T08:11:19.473Z,3.39
2023-05-19T08:12:42.035Z,3.64
2023-05-19T08:14:04.551Z,3.64
2023-05-19T08:15:26.438Z,3.41
2023-05-19T08:16:49.098Z,3.58
2023-05-19T08:18:10.881Z,3.23
2023-05-19T08:19:33.386Z,3.55
2023-05-19T08:20:55.897Z,3.16
2023-05-19T08:22:18.170Z,3.19
2023-05-19T08:23:40.410Z,3.26
2023-05-19T08:25:02.800Z,3.38
2023-05-19T08:26:25.145Z,3.45
2023-05-19T08:27:47.116Z,3.43
2023-05-19T08:29:08.941Z,3.50
2023-05-19T08:30:30.959Z,3.61
2023-05-19T08:31:53.526Z,3.90
2023-05-19T08:33:15.179Z,3.07
2023-05-19T08:34:37.121Z,3.48
2023-05-19T08:35:59.510Z,4.37
2023-05-19T08:37:22.537Z,3.77
2023-05-19T08:38:44.408Z,3.69
2023-05-19T08:40:08.450Z,3.81
2023-05-19T08:41:30.115Z,3.80
2023-05-19T08:42:51.973Z,3.92
2023-05-19T08:44:13.653Z,3.54
2023-05-19T08:45:35.607Z,3.28
2023-05-19T08:46:57.978Z,3.62
2023-05-19T08:48:20.729Z,3.63
2023-05-19T08:49:46.772Z,4.09
2023-05-19T08:51:32.723Z,4.07
2023-05-19T08:53:18.153Z,3.96
2023-05-19T08:54:39.076Z,3.49
2023-05-19T08:57:18.261Z,3.49
2023-05-19T09:00:02.597Z,3.60
2023-05-19T09:01:24.705Z,3.86
2023-05-19T09:02:59.831Z,3.66
2023-05-19T09:04:13.804Z,3.62
2023-05-19T09:05:36.448Z,3.34
2023-05-19T09:08:20.327Z,3.23
2023-05-19T09:09:42.501Z,3.03
2023-05-19T09:11:04.236Z,3.92
2023-05-19T09:12:26.076Z,3.20
2023-05-19T09:13:48.503Z,2.88
2023-05-19T09:15:12.223Z,3.81
2023-05-19T09:16:33.718Z,3.21
2023-05-19T09:18:07.926Z,3.44
2023-05-19T09:19:29.241Z,2.97
2023-05-19T09:20:52.581Z,4.58
2023-05-19T09:22:19.507Z,3.31
2023-05-19T09:23:41.894Z,3.08
2023-05-19T09:25:04.250Z,3.59
2023-05-19T09:26:30.585Z,3.02
2023-05-19T09:27:54.252Z,2.78
2023-05-19T09:29:16.801Z,3.23
2023-05-19T09:30:37.961Z,2.93
2023-05-19T09:31:59.885Z,3.52
2023-05-19T09:33:22.372Z,3.52
2023-05-19T09:34:44.270Z,4.73
2023-05-19T09:36:07.615Z,3.49
2023-05-19T09:37:30.604Z,3.91
2023-05-19T09:38:52.215Z,3.30
2023-05-19T09:40:17.498Z,3.38
2023-05-19T09:41:39.196Z,3.63
2023-05-19T09:43:01.334Z,3.42
2023-05-19T09:44:24.079Z,2.87
2023-05-19T09:45:46.571Z,3.10
2023-05-19T09:47:09.735Z,3.46
2023-05-19T09:48:31.299Z,3.44
2023-05-19T09:49:53.281Z,3.10
2023-05-19T09:51:15.307Z,3.26
2023-05-19T09:52:42.628Z,3.48
2023-05-19T09:54:06.146Z,3.09
2023-05-19T09:55:30.437Z,3.21
2023-05-19T09:57:01.439Z,3.73
2023-05-19T09:58:24.010Z,3.34
2023-05-19T10:01:09.415Z,3.12
2023-05-19T10:02:31.604Z,3.59
2023-05-19T10:03:53.535Z,3.36
2023-05-19T10:06:27.459Z,3.20
2023-05-19T10:07:50.488Z,3.41
2023-05-19T10:09:12.350Z,4.51
2023-05-19T10:11:47.823Z,2.93
2023-05-19T10:13:11.253Z,3.52
2023-05-19T10:14:33.202Z,3.77
2023-05-19T10:15:59.003Z,3.58
2023-05-19T10:17:19.401Z,3.30
2023-05-19T10:18:41.472Z,3.33
2023-05-19T10:20:04.528Z,3.43
2023-05-19T10:21:26.751Z,3.27
2023-05-19T10:22:48.685Z,3.13
2023-05-19T10:24:11.554Z,3.42
2023-05-19T10:25:34.430Z,2.92
2023-05-19T10:27:05.266Z,3.67
2023-05-19T10:28:31.450Z,3.41
2023-05-19T10:29:52.711Z,3.09
2023-05-19T10:31:17.872Z,3.14
2023-05-19T10:32:42.723Z,2.92
2023-05-19T10:36:13.708Z,3.21
2023-05-19T10:39:10.368Z,2.93
2023-05-19T10:40:42.209Z,3.29
2023-05-19T10:42:07.731Z,3.11
2023-05-19T10:43:38.905Z,3.06
2023-05-19T10:45:22.933Z,3.06
2023-05-19T10:46:45.665Z,3.41
2023-05-19T10:48:16.865Z,3.31
2023-05-19T10:49:39.078Z,3.13
2023-05-19T10:51:01.324Z,2.94
2023-05-19T10:52:23.180Z,3.20
2023-05-19T10:53:45.785Z,2.93
2023-05-19T10:56:32.572Z,3.18
2023-05-19T10:57:55.086Z,3.11
2023-05-19T11:00:44.864Z,2.68
2023-05-19T11:02:08.478Z,3.13
2023-05-19T11:04:53.178Z,3.39
2023-05-19T11:06:28.813Z,3.26
2023-05-19T11:09:13.214Z,3.39
2023-05-19T11:10:36.557Z,3.46
2023-05-19T11:12:02.292Z,3.20
2023-05-19T11:13:28.446Z,3.48
2023-05-19T11:14:54.150Z,4.03
2023-05-19T11:16:19.494Z,3.30
2023-05-19T11:17:41.330Z,3.43
2023-05-19T11:20:25.404Z,3.55
2023-05-19T11:21:51.088Z,3.27
2023-05-19T11:23:16.231Z,3.21
2023-05-19T11:24:47.198Z,3.28
2023-05-19T11:26:09.921Z,3.03
2023-05-19T11:27:34.606Z,3.57
2023-05-19T11:28:56.915Z,3.56
2023-05-19T11:30:22.558Z,3.50
2023-05-19T11:31:44.061Z,3.58
2023-05-19T11:33:05.646Z,4.28
2023-05-19T11:34:27.461Z,4.07
2023-05-19T11:35:51.060Z,4.21
2023-05-19T11:37:12.909Z,3.53
2023-05-19T11:38:36.153Z,3.34
2023-05-19T11:39:58.383Z,3.27
2023-05-19T11:41:20.910Z,3.05
2023-05-19T11:42:42.974Z,3.52
2023-05-19T11:45:26.386Z,3.63
2023-05-19T11:46:48.883Z,3.81
2023-05-19T11:49:35.815Z,3.91
2023-05-19T11:50:59.425Z,3.86
2023-05-19T11:52:22.267Z,3.66
2023-05-19T11:53:43.864Z,3.22
2023-05-19T11:55:09.670Z,3.57
2023-05-19T11:56:35.056Z,3.68
2023-05-19T11:58:04.741Z,3.71
2023-05-19T12:00:52.214Z,4.15
2023-05-19T12:02:19.631Z,3.51
2023-05-19T12:03:42.328Z,4.01
2023-05-19T12:05:05.015Z,4.19
2023-05-19T12:06:28.152Z,3.97
2023-05-19T12:07:52.087Z,3.84
2023-05-19T12:10:35.695Z,3.69
2023-05-19T12:11:57.821Z,3.70
2023-05-19T12:13:19.461Z,3.74
2023-05-19T12:14:40.882Z,3.92
2023-05-19T12:16:05.449Z,3.72
2023-05-19T12:17:27.208Z,3.84
2023-05-19T12:18:49.359Z,3.98
2023-05-19T12:21:34.695Z,3.46
2023-05-19T12:22:56.766Z,3.79
2023-05-19T12:24:20.386Z,3.66
2023-05-19T12:25:42.106Z,3.37
2023-05-19T12:27:26.561Z,3.76
2023-05-19T12:28:49.704Z,3.86
2023-05-19T12:30:11.911Z,5.09
2023-05-19T12:31:34.320Z,3.75
2023-05-19T12:32:56.531Z,3.74
2023-05-19T12:34:18.543Z,3.88
2023-05-19T12:35:41.524Z,3.21
2023-05-19T12:37:04.351Z,3.53
2023-05-19T12:38:25.919Z,3.66
2023-05-19T12:39:51.054Z,3.71
2023-05-19T12:41:14.209Z,3.45
2023-05-19T12:42:36.056Z,3.89
2023-05-19T12:43:58.174Z,3.82
2023-05-19T12:45:20.772Z,3.84
2023-05-19T12:46:43.918Z,3.89
2023-05-19T12:48:08.927Z,4.34
2023-05-19T12:49:31.247Z,3.88
2023-05-19T12:52:15.643Z,3.47
2023-05-19T12:53:38.354Z,4.08
2023-05-19T12:55:02.432Z,3.91
2023-05-19T12:56:26.848Z,3.78
2023-05-19T12:57:50.540Z,4.04
2023-05-19T12:59:12.487Z,3.84
2023-05-19T13:00:41.817Z,4.16
2023-05-19T13:03:16.655Z,4.92
2023-05-19T13:04:38.810Z,4.43
2023-05-19T13:06:00.825Z,4.35
2023-05-19T13:08:44.430Z,4.18
2023-05-19T13:11:30.663Z,4.12
2023-05-19T13:12:53.740Z,4.29
2023-05-19T13:14:15.465Z,3.90
2023-05-19T13:15:44.054Z,4.52
2023-05-19T13:17:06.546Z,4.55
2023-05-19T13:18:29.029Z,3.63
2023-05-19T13:19:50.915Z,4.13
2023-05-19T13:21:13.019Z,4.03
2023-05-19T13:22:37.447Z,3.83
2023-05-19T13:23:58.904Z,3.98
2023-05-19T13:25:20.406Z,4.24
2023-05-19T13:26:44.196Z,4.24
2023-05-19T13:28:06.261Z,5.52
2023-05-19T13:30:50.379Z,4.57
2023-05-19T13:33:33.857Z,4.67
2023-05-19T13:34:55.584Z,4.27
2023-05-19T13:36:18.174Z,4.99
2023-05-19T13:39:03.350Z,4.50
2023-05-19T13:40:25.865Z,4.04
2023-05-19T13:41:48.339Z,4.13
2023-05-19T13:43:10.440Z,4.20
2023-05-19T13:44:32.940Z,4.30
2023-05-19T13:45:54.181Z,4.72
2023-05-19T13:47:16.600Z,4.38
2023-05-19T13:48:39.356Z,4.99
2023-05-19T13:50:03.082Z,4.79
2023-05-19T13:51:25.071Z,4.24
2023-05-19T13:52:47.596Z,4.56
2023-05-19T13:54:09.181Z,4.04
2023-05-19T13:55:31.573Z,4.44
2023-05-19T13:56:52.700Z,4.38
2023-05-19T13:58:14.728Z,4.71
2023-05-19T13:59:40.877Z,4.81
2023-05-19T14:01:00.243Z,4.28
2023-05-19T14:02:22.938Z,4.66
2023-05-19T14:03:45.134Z,4.08
2023-05-19T14:05:08.268Z,4.58
2023-05-19T14:06:29.811Z,4.40
2023-05-19T14:07:51.451Z,4.56
2023-05-19T14:09:12.954Z,4.35
2023-05-19T14:10:35.502Z,5.07
2023-05-19T14:11:57.248Z,4.83
2023-05-19T14:13:31.997Z,4.43
2023-05-19T14:14:42.809Z,4.43
2023-05-19T14:16:07.000Z,4.80
2023-05-19T14:18:39.169Z,4.75
2023-05-19T14:20:01.361Z,5.39
2023-05-19T14:21:24.723Z,5.14
2023-05-19T14:22:48.075Z,4.94
2023-05-19T14:24:09.770Z,4.84
2023-05-19T14:25:31.881Z,5.34
2023-05-19T14:28:16.410Z,4.83
2023-05-19T14:29:39.973Z,5.64
2023-05-19T14:31:01.952Z,5.69
2023-05-19T14:32:25.942Z,5.64
2023-05-19T14:33:48.407Z,5.76
2023-05-19T14:35:11.536Z,6.44
2023-05-19T14:36:34.302Z,5.72
2023-05-19T14:37:55.846Z,5.67
2023-05-19T14:39:17.554Z,6.47
2023-05-19T14:40:39.961Z,6.63
2023-05-19T14:43:23.194Z,6.19
2023-05-19T14:44:45.101Z,6.21
2023-05-19T14:47:29.597Z,5.91
2023-05-19T14:48:51.385Z,6.76
2023-05-19T14:50:16.534Z,6.11
2023-05-19T14:51:38.795Z,6.66
2023-05-19T14:53:00.554Z,6.44
2023-05-19T14:54:22.180Z,6.34
2023-05-19T14:55:44.431Z,6.79
2023-05-19T14:57:08.583Z,6.46
2023-05-19T14:58:30.438Z,7.02
2023-05-19T14:59:53.761Z,6.74
2023-05-19T15:01:15.730Z,6.38
2023-05-19T15:02:38.328Z,6.19
2023-05-19T15:04:00.894Z,6.96
2023-05-19T15:05:25.520Z,6.63
2023-05-19T15:06:52.331Z,6.50
2023-05-19T15:08:10.302Z,6.33
2023-05-19T15:09:31.908Z,6.69
2023-05-19T15:10:54.221Z,6.64
2023-05-19T15:12:16.274Z,6.73
2023-05-19T15:15:01.312Z,6.12
2023-05-19T15:16:22.956Z,6.93
2023-05-19T15:17:44.719Z,6.79
2023-05-19T15:19:08.078Z,7.56
2023-05-19T15:20:30.008Z,7.12
2023-05-19T15:21:52.138Z,7.37
2023-05-19T15:23:15.701Z,7.02
2023-05-19T15:24:37.048Z,6.90
2023-05-19T15:25:59.443Z,6.80
2023-05-19T15:27:21.010Z,6.50
2023-05-19T15:28:43.102Z,6.71
2023-05-19T15:30:07.509Z,6.64
2023-05-19T15:31:29.953Z,6.66
2023-05-19T15:32:51.781Z,6.53
2023-05-19T15:34:14.280Z,6.90
2023-05-19T15:35:36.344Z,7.36
2023-05-19T15:36:58.276Z,7.13
2023-05-19T15:38:20.778Z,7.29
2023-05-19T15:39:43.313Z,7.79
2023-05-19T15:41:07.065Z,7.81
2023-05-19T15:42:28.422Z,7.67
2023-05-19T15:43:50.239Z,7.48
2023-05-19T15:45:13.064Z,7.56
2023-05-19T15:46:34.737Z,7.51
2023-05-19T15:47:56.372Z,7.59
2023-05-19T15:49:18.653Z,7.92
2023-05-19T15:50:40.922Z,7.26
2023-05-19T15:52:03.690Z,7.26
2023-05-19T15:53:25.643Z,7.65
2023-05-19T15:54:48.033Z,7.96
2023-05-19T15:56:10.691Z,7.90
2023-05-19T15:57:32.319Z,7.70
2023-05-19T15:58:53.604Z,6.87
2023-05-19T16:00:16.466Z,8.09
2023-05-19T16:01:38.178Z,7.28
2023-05-19T16:03:02.524Z,8.21
2023-05-19T16:04:24.630Z,7.56
2023-05-19T16:05:46.706Z,8.19
2023-05-19T16:07:08.223Z,7.89
2023-05-19T16:08:29.388Z,7.62
2023-05-19T16:09:51.230Z,8.47
2023-05-19T16:11:13.600Z,7.85
2023-05-19T16:12:35.927Z,8.07
2023-05-19T16:13:58.990Z,7.89
2023-05-19T16:15:20.864Z,8.38
2023-05-19T16:16:44.602Z,7.89
2023-05-19T16:18:07.702Z,7.52
2023-05-19T16:19:29.499Z,5.73
2023-05-19T16:20:51.728Z,5.53
2023-05-19T16:22:14.097Z,5.56
2023-05-19T16:23:36.305Z,6.29
2023-05-19T16:24:58.568Z,6.67
2023-05-19T16:26:20.430Z,6.60
2023-05-19T16:27:41.978Z,5.82
2023-05-19T16:29:03.397Z,5.44
2023-05-19T16:30:25.737Z,10.14
2023-05-19T16:31:47.962Z,7.08
2023-05-19T16:33:09.967Z,6.02
2023-05-19T16:34:32.973Z,5.11
2023-05-19T16:35:56.167Z,4.78
2023-05-19T16:37:18.478Z,4.94
2023-05-19T16:38:40.570Z,6.26
2023-05-19T16:40:02.090Z,6.58
2023-05-19T16:41:23.756Z,5.90
2023-05-19T16:42:45.209Z,5.79
2023-05-19T16:44:06.742Z,5.76
2023-05-19T16:45:29.035Z,5.63
2023-05-19T16:46:50.183Z,5.61
2023-05-19T16:48:11.763Z,5.87
2023-05-19T16:49:33.047Z,5.46
2023-05-19T16:50:55.369Z,5.88
2023-05-19T16:52:16.981Z,6.75
2023-05-19T16:53:39.331Z,6.22
2023-05-19T16:56:23.568Z,9.16
2023-05-19T16:57:46.922Z,12.69
2023-05-19T17:00:31.044Z,11.31
2023-05-19T17:01:52.946Z,8.29
2023-05-19T17:03:14.325Z,7.89
2023-05-19T17:04:36.079Z,11.98
2023-05-19T17:05:58.352Z,9.18
2023-05-19T17:07:20.211Z,7.97
2023-05-19T17:08:42.172Z,9.10
2023-05-19T17:10:05.461Z,8.16
2023-05-19T17:11:28.553Z,8.14
2023-05-19T17:14:14.176Z,5.63
2023-05-19T17:16:59.885Z,7.99
2023-05-19T17:18:22.077Z,8.17
2023-05-19T17:19:43.937Z,7.80
2023-05-19T17:21:06.427Z,8.08
2023-05-19T17:22:29.997Z,8.03
2023-05-19T17:23:51.995Z,8.31
2023-05-19T17:25:14.080Z,8.95
2023-05-19T17:26:36.181Z,8.97
2023-05-19T17:27:58.126Z,9.03
2023-05-19T17:29:20.593Z,8.34
2023-05-19T17:30:42.168Z,9.21
2023-05-19T17:32:04.590Z,10.03
2023-05-19T17:33:25.861Z,12.32
2023-05-19T17:34:48.190Z,10.96
2023-05-19T17:36:10.628Z,10.91
2023-05-19T17:37:32.690Z,10.11
2023-05-19T17:38:55.117Z,10.14
2023-05-19T17:40:18.235Z,9.62
2023-05-19T17:41:39.848Z,8.51
2023-05-19T17:43:01.252Z,8.91
2023-05-19T17:44:23.302Z,8.33
2023-05-19T17:45:45.340Z,8.75
2023-05-19T17:47:06.868Z,7.74
2023-05-19T17:48:29.625Z,7.80
2023-05-19T17:49:52.019Z,8.29
2023-05-19T17:51:14.213Z,8.58
2023-05-19T17:52:36.505Z,8.00
2023-05-19T17:53:58.527Z,7.84
2023-05-19T17:55:20.878Z,7.97
2023-05-19T17:58:05.545Z,7.56
2023-05-19T17:59:28.370Z,7.44
2023-05-19T18:02:12.574Z,7.69
2023-05-19T18:03:36.481Z,8.42
2023-05-19T18:04:58.467Z,8.70
2023-05-19T18:06:20.879Z,7.64
2023-05-19T18:07:44.287Z,8.62
2023-05-19T18:09:08.347Z,8.21
2023-05-19T18:10:30.759Z,8.81
2023-05-19T18:11:51.963Z,9.89
2023-05-19T18:13:14.607Z,9.52
2023-05-19T18:14:36.117Z,9.46
2023-05-19T18:15:57.860Z,10.06
2023-05-19T18:17:19.731Z,9.06
2023-05-19T18:18:42.105Z,9.84
2023-05-19T18:20:05.164Z,9.44
2023-05-19T18:21:27.544Z,9.75
2023-05-19T18:22:49.174Z,9.22
2023-05-19T18:24:11.039Z,10.37
2023-05-19T18:25:32.966Z,10.42
2023-05-19T18:26:54.654Z,7.74
2023-05-19T18:28:16.441Z,10.57
2023-05-19T18:29:38.330Z,10.16
2023-05-19T18:31:04.232Z,9.96
2023-05-19T18:32:25.690Z,10.09
2023-05-19T18:33:47.608Z,10.91
2023-05-19T18:35:09.971Z,10.64
2023-05-19T18:36:31.716Z,8.77
2023-05-19T18:37:55.253Z,11.51
2023-05-19T18:39:17.050Z,11.76
2023-05-19T18:40:38.664Z,11.36
2023-05-19T18:42:01.042Z,11.72
2023-05-19T18:43:23.417Z,11.09
2023-05-19T18:44:45.193Z,8.63
2023-05-19T18:46:09.154Z,11.39
2023-05-19T18:47:31.964Z,10.89
2023-05-19T18:48:53.517Z,11.62
2023-05-19T18:50:17.604Z,12.08
2023-05-19T18:51:39.457Z,12.00
2023-05-19T18:53:00.603Z,12.79
2023-05-19T18:54:23.036Z,12.92
2023-05-19T18:55:45.499Z,12.59
2023-05-19T18:57:07.460Z,13.26
2023-05-19T18:58:29.028Z,12.67
2023-05-19T18:59:51.634Z,13.22
2023-05-19T19:01:13.251Z,12.59
2023-05-19T19:02:35.448Z,12.95
2023-05-19T19:03:57.391Z,9.81
2023-05-19T19:05:20.196Z,13.25
2023-05-19T19:06:43.843Z,11.79
2023-05-19T19:08:07.205Z,12.14
2023-05-19T19:10:51.283Z,12.03
2023-05-19T19:12:14.650Z,11.29
2023-05-19T19:13:38.088Z,10.61
2023-05-19T19:14:59.630Z,10.78
2023-05-19T19:16:21.777Z,11.49
2023-05-19T19:17:45.439Z,11.72
2023-05-19T19:19:06.996Z,10.89
2023-05-19T19:20:29.076Z,10.00
2023-05-19T19:21:51.017Z,10.29
2023-05-19T19:23:12.551Z,10.05
2023-05-19T19:24:34.042Z,10.41
2023-05-19T19:25:55.085Z,10.20
2023-05-19T19:27:17.354Z,10.05
2023-05-19T19:29:48.832Z,7.93
2023-05-19T19:31:11.413Z,10.31